Aviation Digital Data Service (ADDS)

Output produced by METARs form (1729 UTC 03 June 2020)
found at http://www.aviationweather.gov/metar/data/
 
NSFA 031600Z 00000KT 9999 FEW030 23/22 Q1011 RMK NIL
NSFA 031500Z 12003KT 9999 FEW028 SCT300 23/22 Q1012 RMK NIL
NSFA 031400Z 00000KT 9999 FEW028 SCT290 23/23 Q1011 RMK NIL
NSFA 031300Z 00000KT 9999 FEW028 23/23 Q1011 RMK NIL
NSFA 031200Z 00000KT 9999 FEW025 BKN280 24/23 Q1012 RMK NIL
NSFA 031100Z 17003KT 9999 FEW026 BKN180 24/24 Q1012 RMK NIL
NSFA 031000Z 00000KT 9999 FEW028 SCT280 24/24 Q1012 RMK NIL
NSFA 030900Z VRB03KT 9999 FEW027 BKN250 24/23 Q1012 RMK NIL
NSFA 030800Z 16003KT 9999 FEW028 BKN280 25/24 Q1012 RMK NIL
NSFA 030700Z 00000KT 9999 FEW027 SCT290 25/25 Q1012 RMK NIL
NSFA 030600Z 10006KT 9999 FEW025 SCT290 28/25 Q1012 RMK NIL
NSFA 030400Z 08008KT 9999 FEW024 SCT280 30/25 Q1011 RMK NIL
NSFA 030300Z 06008KT 360V090 9999 FEW026 31/26 Q1011 RMK NIL
NSFA 030200Z 07010KT 040V100 9999 FEW025 32/26 Q1010 RMK NIL
NSFA 030100Z 05009KT 360V080 9999 SCT026 32/26 Q1011 RMK NIL
NSFA 030000Z 07010KT 040V110 9999 SCT024 32/26 Q1012 RMK NIL
NSFA 022300Z 08011KT 040V110 9999 SCT023 31/26 Q1013 RMK NIL
NSFA 022200Z 09008KT 050V120 9999 FEW024 31/26 Q1014 RMK NIL
NSFA 022100Z 00000KT 9999 FEW024 29/26 Q1014 RMK NIL
NSFA 022000Z 08006KT 9999 FEW022 SCT060 28/25 Q1014 RMK NIL
NSFA 021900Z 12005KT 9999 SCT023 26/24 Q1014 RMK NIL
NSFA 021800Z 13005KT 9999 FEW030 24/23 Q1013 RMK NIL
TAF NSFA 031705Z 0318/0418 10007KT 9999 FEW030